Time;durP1;ratioP1;P1;durP2;ratioP2;P2;SDS_P1;SDS_P2;PMS_P1;PMS_P2;Temp;Humidity;BMP_temperature;BMP_pressure;BME280_temperature;BME280_humidity;BME280_pressure;Samples;Min_cycle;Max_cycle;Signal;HPM_P1;HPM_P2
2023/11/18 00:01:09;;;;;;;21.60;13.37;;;9.40;99.00;;;;;;4996888;28;20432;-27
2023/11/18 00:03:35;;;;;;;19.43;13.20;;;9.30;99.00;;;;;;5004588;28;20448;-27
2023/11/18 00:06:01;;;;;;;21.03;14.67;;;9.30;99.10;;;;;;5004628;28;20437;-27
2023/11/18 00:08:30;;;;;;;21.60;13.63;;;9.30;99.10;;;;;;5009610;28;20415;-27
2023/11/18 00:10:56;;;;;;;23.73;13.80;;;9.30;99.20;;;;;;5007280;28;20481;-27
2023/11/18 00:13:26;;;;;;;18.88;12.95;;;9.20;99.30;;;;;;4992985;28;20455;-27
2023/11/18 00:15:54;;;;;;;19.03;12.80;;;9.20;99.30;;;;;;4991135;28;20435;-27
2023/11/18 00:18:23;;;;;;;19.85;12.90;;;9.20;99.30;;;;;;5004009;28;20474;-27
2023/11/18 00:20:51;;;;;;;18.00;12.18;;;9.30;99.40;;;;;;5007810;28;20703;-28
2023/11/18 00:23:17;;;;;;;17.50;12.20;;;9.30;99.30;;;;;;5004991;28;20218;-27
2023/11/18 00:25:45;;;;;;;17.60;12.00;;;9.40;99.30;;;;;;4990092;28;20435;-27
2023/11/18 00:28:11;;;;;;;17.80;12.67;;;9.30;99.50;;;;;;5004500;28;21470;-27
2023/11/18 00:30:41;;;;;;;18.07;12.90;;;9.30;99.40;;;;;;5006948;28;20464;-27
2023/11/18 00:33:07;;;;;;;19.07;12.77;;;9.30;99.50;;;;;;5009752;28;20548;-27
2023/11/18 00:35:35;;;;;;;18.43;12.43;;;9.30;99.70;;;;;;5003452;28;20427;-27
2023/11/18 00:38:02;;;;;;;18.57;11.43;;;9.20;99.80;;;;;;4986819;28;20481;-27
2023/11/18 00:40:29;;;;;;;18.58;12.30;;;9.20;99.90;;;;;;4997926;28;20443;-27
2023/11/18 00:42:57;;;;;;;16.67;11.45;;;9.20;99.90;;;;;;4983687;28;20211;-27
2023/11/18 00:45:26;;;;;;;20.73;11.93;;;9.30;99.90;;;;;;4994824;28;20688;-27
2023/11/18 00:47:55;;;;;;;18.13;12.43;;;9.40;99.90;;;;;;5005463;28;20544;-28
2023/11/18 00:50:23;;;;;;;17.33;11.40;;;9.30;99.90;;;;;;4989170;28;20467;-27
2023/11/18 00:52:50;;;;;;;22.20;12.70;;;9.30;99.90;;;;;;4989873;28;20466;-27
2023/11/18 00:55:21;;;;;;;17.10;12.18;;;9.30;99.90;;;;;;5005595;28;20467;-27
2023/11/18 00:57:47;;;;;;;17.20;11.52;;;9.30;99.90;;;;;;4997982;28;20216;-27
2023/11/18 01:00:15;;;;;;;20.73;12.90;;;9.30;99.90;;;;;;4998542;28;21082;-27
2023/11/18 01:02:46;;;;;;;16.63;11.60;;;9.40;99.90;;;;;;5000217;28;20978;-27
2023/11/18 01:05:15;;;;;;;18.57;11.87;;;9.30;99.90;;;;;;4966844;28;20437;-27
2023/11/18 01:07:42;;;;;;;17.80;11.73;;;9.30;99.90;;;;;;5003455;28;20433;-27
2023/11/18 01:10:13;;;;;;;17.73;11.20;;;9.30;99.90;;;;;;4966235;28;20478;-27
2023/11/18 01:12:45;;;;;;;22.83;12.20;;;9.30;99.90;;;;;;5000400;28;20440;-27
2023/11/18 01:15:12;;;;;;;20.80;12.93;;;9.20;99.40;;;;;;4962771;28;20445;-27
2023/11/18 01:17:38;;;;;;;18.83;12.33;;;9.20;99.40;;;;;;4998664;28;20579;-27
2023/11/18 01:20:10;;;;;;;21.40;13.10;;;9.20;99.50;;;;;;5002187;28;20487;-27
2023/11/18 01:22:39;;;;;;;21.40;11.40;;;9.20;99.60;;;;;;4986288;28;20452;-27
2023/11/18 01:25:08;;;;;;;15.97;10.77;;;9.20;99.70;;;;;;5004223;28;20427;-27
2023/11/18 01:27:37;;;;;;;18.17;13.27;;;9.20;99.70;;;;;;5003888;28;20453;-27
2023/11/18 01:30:04;;;;;;;19.02;12.20;;;9.20;99.70;;;;;;4985488;28;20455;-27
2023/11/18 01:32:30;;;;;;;21.70;12.23;;;9.20;99.70;;;;;;5001975;28;20258;-27
2023/11/18 01:34:56;;;;;;;19.80;12.80;;;9.20;99.60;;;;;;5003818;28;20483;-27
2023/11/18 01:37:23;;;;;;;17.90;10.90;;;9.20;99.60;;;;;;4990184;28;20980;-27
2023/11/18 01:39:50;;;;;;;20.57;11.30;;;9.20;99.60;;;;;;4999725;28;20493;-28
2023/11/18 01:42:15;;;;;;;14.87;10.30;;;9.20;99.60;;;;;;5012353;28;20997;-33
2023/11/18 01:44:42;;;;;;;19.67;11.83;;;9.20;99.70;;;;;;4986099;28;20436;-28
2023/11/18 01:47:12;;;;;;;18.13;11.40;;;9.20;99.70;;;;;;4985468;28;20456;-28
2023/11/18 01:49:39;;;;;;;16.53;11.40;;;9.20;99.70;;;;;;5014653;28;20428;-27
2023/11/18 01:52:09;;;;;;;18.95;11.23;;;9.10;99.70;;;;;;5003482;28;20478;-27
2023/11/18 01:54:38;;;;;;;15.55;10.35;;;9.20;99.70;;;;;;5016205;28;20595;-27
2023/11/18 01:57:06;;;;;;;16.03;11.10;;;9.20;99.70;;;;;;5000278;28;20232;-28
2023/11/18 01:59:37;;;;;;;15.60;10.70;;;9.20;99.50;;;;;;4974558;28;20607;-27
2023/11/18 02:02:08;;;;;;;18.50;12.50;;;9.30;99.50;;;;;;4971405;28;20442;-27
2023/11/18 02:04:37;;;;;;;18.80;12.40;;;9.30;99.40;;;;;;4999828;28;21149;-27
2023/11/18 02:07:09;;;;;;;19.60;11.63;;;9.30;99.40;;;;;;5016203;28;20444;-27
2023/11/18 02:09:37;;;;;;;15.70;11.43;;;9.20;99.40;;;;;;5003436;28;21010;-27
2023/11/18 02:12:11;;;;;;;16.80;11.17;;;9.20;99.40;;;;;;5003031;28;20543;-27
2023/11/18 02:14:40;;;;;;;19.57;12.23;;;9.20;99.50;;;;;;4997520;28;20503;-27
2023/11/18 02:17:09;;;;;;;15.00;10.50;;;9.20;99.50;;;;;;4952919;28;20428;-27
2023/11/18 02:19:39;;;;;;;15.77;11.37;;;9.20;99.60;;;;;;5011593;28;21015;-27
2023/11/18 02:22:07;;;;;;;18.33;11.30;;;9.20;99.50;;;;;;4985207;28;20480;-27
2023/11/18 02:24:40;;;;;;;17.93;11.57;;;9.20;99.50;;;;;;5000435;28;21185;-27
2023/11/18 02:27:12;;;;;;;15.93;10.83;;;9.20;99.50;;;;;;5003706;28;20440;-27
2023/11/18 02:29:45;;;;;;;15.70;10.67;;;9.20;99.60;;;;;;5002041;28;21320;-27
2023/11/18 02:32:17;;;;;;;18.10;11.93;;;9.20;99.60;;;;;;5008138;28;20436;-27
2023/11/18 02:34:53;;;;;;;16.90;11.20;;;9.10;99.60;;;;;;5000960;28;20462;-27
2023/11/18 02:37:21;;;;;;;18.30;12.27;;;9.10;99.60;;;;;;4994291;22;20501;-71
2023/11/18 02:39:53;;;;;;;15.60;10.60;;;9.10;99.70;;;;;;5017744;28;21516;-70
2023/11/18 02:42:22;;;;;;;15.47;10.70;;;9.10;99.70;;;;;;5002493;28;21129;-70
2023/11/18 02:44:51;;;;;;;18.20;11.37;;;9.10;99.70;;;;;;5009629;28;20489;-69
2023/11/18 02:47:17;;;;;;;16.60;10.60;;;9.10;99.70;;;;;;5006221;28;20477;-70
2023/11/18 02:49:43;;;;;;;17.83;10.30;;;9.10;99.70;;;;;;5003053;28;20634;-69
2023/11/18 02:52:09;;;;;;;18.02;11.00;;;9.10;99.70;;;;;;5006162;28;20445;-70
2023/11/18 02:54:38;;;;;;;17.97;11.47;;;9.10;99.70;;;;;;5021958;28;20235;-70
2023/11/18 02:57:04;;;;;;;17.40;11.07;;;9.10;99.70;;;;;;5017477;28;21024;-71
2023/11/18 02:59:31;;;;;;;16.58;11.25;;;9.10;99.60;;;;;;5022035;28;20454;-69
2023/11/18 03:01:56;;;;;;;18.30;11.93;;;9.10;99.60;;;;;;5022152;28;20188;-69
2023/11/18 03:04:23;;;;;;;27.13;12.15;;;9.20;99.60;;;;;;4984829;28;21315;-69
2023/11/18 03:06:50;;;;;;;17.93;11.30;;;9.20;99.60;;;;;;5022306;28;20184;-70
2023/11/18 03:09:19;;;;;;;15.73;10.43;;;9.20;99.50;;;;;;5004582;28;20446;-69
2023/11/18 03:11:46;;;;;;;18.30;12.00;;;9.20;99.50;;;;;;5006058;28;20435;-70
2023/11/18 03:14:13;;;;;;;17.63;11.47;;;9.20;99.50;;;;;;5022168;28;20446;-70
2023/11/18 03:16:39;;;;;;;16.30;10.40;;;9.20;99.50;;;;;;5021750;28;20447;-70
2023/11/18 03:19:10;;;;;;;15.10;10.43;;;9.20;99.60;;;;;;5013689;28;20228;-71
2023/11/18 03:24:46;;;;;;;13.67;9.63;;;9.10;99.50;;;;;;5048669;22;20555;-36
2023/11/18 03:27:14;;;;;;;15.80;10.57;;;9.10;99.50;;;;;;5022499;28;20434;-35
2023/11/18 03:29:43;;;;;;;15.40;10.37;;;9.10;99.60;;;;;;5003148;28;20843;-37
2023/11/18 03:32:12;;;;;;;18.83;11.27;;;9.10;99.60;;;;;;5014583;28;20435;-38
2023/11/18 03:34:38;;;;;;;16.30;10.40;;;9.10;99.60;;;;;;5017478;28;20480;-38
2023/11/18 03:37:04;;;;;;;13.90;10.55;;;9.10;99.70;;;;;;5022988;28;20872;-40
2023/11/18 03:39:33;;;;;;;16.10;11.47;;;9.10;99.70;;;;;;5040494;28;20223;-35
2023/11/18 03:42:01;;;;;;;15.87;10.53;;;9.10;99.60;;;;;;4986102;28;20611;-38
2023/11/18 03:44:27;;;;;;;15.03;10.60;;;9.10;99.60;;;;;;5018233;28;20424;-38
2023/11/18 03:46:54;;;;;;;16.77;11.00;;;9.20;99.50;;;;;;4999860;28;20522;-40
2023/11/18 03:49:20;;;;;;;17.23;10.30;;;9.10;99.40;;;;;;5014394;28;20479;-39
2023/11/18 03:51:50;;;;;;;15.80;10.40;;;9.10;99.50;;;;;;5020468;28;20453;-37
2023/11/18 03:54:16;;;;;;;15.73;10.80;;;9.10;99.50;;;;;;5020076;28;20451;-40
2023/11/18 03:56:42;;;;;;;18.57;10.97;;;9.10;99.60;;;;;;5006048;28;20437;-40
2023/11/18 03:59:09;;;;;;;15.70;10.38;;;9.10;99.70;;;;;;5014676;28;20955;-40
2023/11/18 04:01:37;;;;;;;15.20;9.50;;;9.10;99.60;;;;;;5017018;28;20238;-39
2023/11/18 04:04:06;;;;;;;14.45;9.98;;;9.10;99.50;;;;;;5017537;28;20453;-37
2023/11/18 04:06:32;;;;;;;14.47;10.10;;;9.20;99.60;;;;;;4998472;28;20813;-38
2023/11/18 04:08:59;;;;;;;16.03;10.67;;;9.20;99.40;;;;;;5034359;28;21147;-37
2023/11/18 04:11:27;;;;;;;18.00;10.67;;;9.20;99.40;;;;;;5043996;28;20521;-38
2023/11/18 04:13:56;;;;;;;13.40;10.27;;;9.20;99.40;;;;;;5038542;28;20446;-39
2023/11/18 04:16:25;;;;;;;12.73;8.90;;;9.10;99.40;;;;;;5005064;28;20449;-36
2023/11/18 04:18:53;;;;;;;13.80;9.90;;;9.10;99.50;;;;;;5039759;28;20470;-38
2023/11/18 04:21:19;;;;;;;17.27;9.83;;;9.10;99.50;;;;;;5002021;28;20457;-36
2023/11/18 04:23:46;;;;;;;13.88;9.77;;;9.10;99.50;;;;;;5000781;28;20474;-36
2023/11/18 04:26:17;;;;;;;16.52;9.35;;;9.10;99.60;;;;;;5041236;28;20184;-38
2023/11/18 04:28:43;;;;;;;15.50;10.77;;;9.10;99.50;;;;;;4997439;28;20219;-38
2023/11/18 04:31:09;;;;;;;13.10;10.43;;;9.20;99.40;;;;;;5035700;28;20438;-39
2023/11/18 04:33:40;;;;;;;15.93;10.30;;;9.20;99.40;;;;;;5035565;28;20439;-37
2023/11/18 04:36:09;;;;;;;15.10;9.47;;;9.10;99.30;;;;;;5014485;28;20908;-39
2023/11/18 04:38:36;;;;;;;16.90;10.40;;;9.10;99.40;;;;;;5020532;28;20468;-38
2023/11/18 04:41:06;;;;;;;13.27;9.07;;;9.10;99.40;;;;;;5019664;28;20420;-39
2023/11/18 04:43:33;;;;;;;13.83;9.63;;;9.10;99.50;;;;;;5020222;28;20437;-39
2023/11/18 04:46:02;;;;;;;12.95;8.93;;;9.10;99.40;;;;;;5032671;28;20922;-40
2023/11/18 04:48:31;;;;;;;12.73;9.27;;;9.10;99.40;;;;;;5040293;28;20192;-38
2023/11/18 04:50:59;;;;;;;12.43;9.23;;;9.10;99.30;;;;;;5037970;28;20426;-38
2023/11/18 04:53:28;;;;;;;13.70;9.80;;;9.20;99.20;;;;;;4991795;28;20493;-39
2023/11/18 04:55:58;;;;;;;13.60;9.50;;;9.20;99.20;;;;;;5022142;28;20246;-38
2023/11/18 04:58:24;;;;;;;13.43;9.40;;;9.20;99.10;;;;;;5035031;28;20469;-40
2023/11/18 05:00:50;;;;;;;15.87;10.33;;;9.20;99.10;;;;;;5034881;28;20434;-39
2023/11/18 05:03:18;;;;;;;12.33;8.53;;;9.10;99.20;;;;;;5030653;28;20481;-39
2023/11/18 05:05:51;;;;;;;14.00;10.33;;;9.10;99.20;;;;;;5033605;28;20449;-39
2023/11/18 05:08:19;;;;;;;12.38;9.10;;;9.10;99.40;;;;;;5040674;28;20468;-40
2023/11/18 05:10:51;;;;;;;15.03;10.07;;;9.10;99.40;;;;;;5037840;28;20592;-40
2023/11/18 05:13:18;;;;;;;13.97;9.37;;;9.10;99.30;;;;;;5035282;28;20461;-40
2023/11/18 05:15:46;;;;;;;13.47;9.30;;;9.10;99.30;;;;;;5034046;28;20729;-37
2023/11/18 05:18:15;;;;;;;13.20;10.23;;;9.10;99.40;;;;;;5038915;28;20589;-38
2023/11/18 05:20:44;;;;;;;14.47;10.00;;;9.00;99.40;;;;;;5020088;28;20531;-39
2023/11/18 05:23:12;;;;;;;13.50;9.40;;;9.00;99.40;;;;;;5030886;28;21039;-38
2023/11/18 05:25:46;;;;;;;10.40;7.93;;;9.00;99.50;;;;;;5032266;28;20439;-37
2023/11/18 05:28:15;;;;;;;13.13;9.33;;;9.00;99.50;;;;;;5016566;28;20501;-39
2023/11/18 05:30:46;;;;;;;12.30;9.60;;;9.10;99.50;;;;;;5015966;28;20438;-40
2023/11/18 05:33:17;;;;;;;13.30;9.77;;;9.10;99.40;;;;;;5020707;28;20454;-40
2023/11/18 05:35:49;;;;;;;12.90;9.70;;;9.10;99.50;;;;;;5035295;28;20423;-40
2023/11/18 05:38:18;;;;;;;14.87;9.50;;;9.10;99.50;;;;;;5038605;28;20478;-40
2023/11/18 05:40:55;;;;;;;12.32;9.48;;;9.00;99.50;;;;;;5038821;28;20439;-37
2023/11/18 05:43:29;;;;;;;12.77;9.03;;;9.00;99.60;;;;;;5016293;28;20200;-39
2023/11/18 05:48:44;;;;;;;14.07;9.50;;;9.10;99.50;;;;;;5011944;28;20452;-41
2023/11/18 05:51:10;;;;;;;11.43;8.53;;;9.00;99.50;;;;;;5020153;28;20422;-39
2023/11/18 05:53:43;;;;;;;11.87;8.63;;;9.00;99.50;;;;;;5029312;28;20451;-35
2023/11/18 05:56:10;;;;;;;14.27;9.57;;;9.00;99.60;;;;;;5033749;28;20796;-41
2023/11/18 05:58:38;;;;;;;13.13;9.17;;;9.00;99.60;;;;;;5028820;28;20812;-40
2023/11/18 06:01:12;;;;;;;13.30;8.80;;;9.00;99.60;;;;;;5032813;28;20418;-40
2023/11/18 06:03:41;;;;;;;14.40;10.30;;;9.00;99.70;;;;;;4994614;28;20442;-40
2023/11/18 06:06:16;;;;;;;11.90;9.10;;;9.00;99.70;;;;;;5040728;28;20451;-38
2023/11/18 06:08:42;;;;;;;13.97;10.30;;;9.00;99.80;;;;;;5036850;28;20438;-39
2023/11/18 06:11:12;;;;;;;12.63;8.50;;;9.00;99.90;;;;;;5024093;28;20797;-39
2023/11/18 06:13:50;;;;;;;14.13;9.33;;;8.90;99.70;;;;;;5041501;28;20831;-39
2023/11/18 06:16:17;;;;;;;12.63;8.45;;;8.90;99.80;;;;;;5016431;28;20441;-38
2023/11/18 06:18:44;;;;;;;14.50;9.27;;;9.00;99.80;;;;;;5023177;28;20848;-40
2023/11/18 06:21:19;;;;;;;13.10;10.10;;;9.00;99.70;;;;;;5015852;28;20494;-39
2023/11/18 06:23:47;;;;;;;13.20;9.40;;;9.00;99.70;;;;;;5005131;28;20466;-40
2023/11/18 06:26:19;;;;;;;12.53;8.97;;;9.00;99.70;;;;;;5004849;28;20998;-40
2023/11/18 06:28:45;;;;;;;13.90;9.67;;;9.00;99.70;;;;;;5030210;28;20465;-34
2023/11/18 06:31:12;;;;;;;11.90;8.43;;;9.00;99.70;;;;;;5023418;28;20460;-39
2023/11/18 06:33:42;;;;;;;14.82;9.88;;;9.00;99.70;;;;;;5009196;28;20457;-39
2023/11/18 06:36:21;;;;;;;13.00;8.70;;;9.10;99.70;;;;;;5037837;28;20568;-41
2023/11/18 06:38:49;;;;;;;12.67;9.37;;;9.10;99.50;;;;;;5038602;28;20483;-38
2023/11/18 06:41:22;;;;;;;11.17;8.53;;;9.10;99.60;;;;;;5041621;28;20446;-40
2023/11/18 06:46:24;;;;;;;11.83;8.93;;;9.00;99.60;;;;;;5014637;28;20847;-37
2023/11/18 06:48:54;;;;;;;12.30;9.60;;;9.00;99.60;;;;;;5022195;28;20478;-40
2023/11/18 06:51:24;;;;;;;13.30;9.70;;;9.00;99.70;;;;;;5042838;28;20437;-36
2023/11/18 06:53:57;;;;;;;12.10;9.07;;;9.00;99.70;;;;;;5022887;28;20948;-39
2023/11/18 06:56:24;;;;;;;13.00;9.67;;;8.90;99.70;;;;;;5044050;28;20447;-37
2023/11/18 06:58:50;;;;;;;13.90;9.33;;;9.00;99.80;;;;;;5038394;28;20545;-38
2023/11/18 07:01:20;;;;;;;11.50;8.83;;;9.00;99.80;;;;;;5022415;28;20427;-39
2023/11/18 07:03:52;;;;;;;13.80;9.53;;;9.00;99.90;;;;;;5021968;28;20421;-40
2023/11/18 07:06:23;;;;;;;28.07;9.93;;;9.00;99.90;;;;;;5018187;28;20427;-39
2023/11/18 07:08:50;;;;;;;10.50;7.83;;;9.00;99.90;;;;;;5020131;28;20846;-40
2023/11/18 07:11:16;;;;;;;11.67;8.57;;;9.00;99.90;;;;;;5036861;28;20778;-40
2023/11/18 07:13:47;;;;;;;15.13;9.50;;;8.90;99.90;;;;;;5026953;28;20492;-40
2023/11/18 07:16:14;;;;;;;12.57;8.30;;;8.90;99.90;;;;;;5002178;28;20554;-37
2023/11/18 07:18:42;;;;;;;11.90;9.00;;;9.00;99.90;;;;;;5022028;28;20560;-32
2023/11/18 07:21:11;;;;;;;12.13;9.13;;;8.90;99.90;;;;;;5002976;28;20470;-37
2023/11/18 07:23:36;;;;;;;11.13;8.65;;;9.00;99.90;;;;;;5002584;28;20220;-37
2023/11/18 07:26:06;;;;;;;11.82;8.00;;;9.10;99.90;;;;;;5021328;28;20205;-37
2023/11/18 07:28:32;;;;;;;11.93;8.93;;;9.10;99.70;;;;;;5020990;28;20218;-35
2023/11/18 07:30:59;;;;;;;12.87;9.50;;;9.20;99.60;;;;;;5003993;28;20555;-35
2023/11/18 07:33:27;;;;;;;15.73;9.20;;;9.20;99.40;;;;;;5004814;28;20513;-38
2023/11/18 07:35:55;;;;;;;11.00;7.68;;;9.10;99.40;;;;;;5040332;28;20935;-36
2023/11/18 07:38:24;;;;;;;10.10;7.95;;;9.10;99.40;;;;;;5024545;28;20696;-34
2023/11/18 07:40:52;;;;;;;13.00;9.40;;;9.10;99.40;;;;;;5042162;28;20180;-39
2023/11/18 07:43:21;;;;;;;11.30;8.53;;;9.20;99.40;;;;;;5015541;28;20453;-40
2023/11/18 07:45:53;;;;;;;9.97;7.57;;;9.20;99.50;;;;;;5020169;28;20415;-40
2023/11/18 07:48:21;;;;;;;11.73;8.60;;;9.10;99.50;;;;;;5035129;28;20988;-36
2023/11/18 07:50:49;;;;;;;10.80;7.93;;;9.10;99.50;;;;;;5040991;28;20411;-38
2023/11/18 07:53:15;;;;;;;13.73;9.80;;;9.10;99.60;;;;;;5041344;28;20448;-39
2023/11/18 07:55:42;;;;;;;13.30;9.03;;;9.00;99.70;;;;;;5007657;28;20449;-37
2023/11/18 07:58:12;;;;;;;15.67;10.70;;;9.00;99.80;;;;;;5041855;28;20469;-39
2023/11/18 08:00:41;;;;;;;13.52;9.32;;;9.00;99.90;;;;;;5008012;28;20419;-39
2023/11/18 08:03:11;;;;;;;14.63;9.23;;;9.00;99.90;;;;;;5023751;28;20234;-37
2023/11/18 08:05:45;;;;;;;13.38;9.57;;;9.10;99.90;;;;;;5024845;28;20195;-34
2023/11/18 08:08:20;;;;;;;11.17;8.40;;;9.10;99.70;;;;;;5036720;28;20804;-35
2023/11/18 08:10:48;;;;;;;11.33;8.17;;;9.20;99.60;;;;;;5041467;28;20778;-38
2023/11/18 08:13:14;;;;;;;10.90;8.23;;;9.10;99.60;;;;;;5032270;28;20454;-36
2023/11/18 08:15:42;;;;;;;10.47;7.73;;;9.10;99.70;;;;;;5021930;28;20958;-40
2023/11/18 08:18:11;;;;;;;11.40;8.40;;;9.10;99.70;;;;;;5022254;28;20561;-38
2023/11/18 08:20:38;;;;;;;12.83;7.67;;;9.10;99.70;;;;;;5021685;28;20501;-38
2023/11/18 08:23:06;;;;;;;10.53;8.20;;;9.10;99.80;;;;;;5039659;28;20459;-39
2023/11/18 08:25:34;;;;;;;12.17;7.53;;;9.10;99.80;;;;;;5040113;28;20882;-38
2023/11/18 08:28:04;;;;;;;12.57;7.73;;;9.10;99.90;;;;;;5039837;28;20955;-35
2023/11/18 08:30:32;;;;;;;11.30;7.27;;;9.10;99.90;;;;;;5039229;28;20454;-36
2023/11/18 08:32:58;;;;;;;11.00;7.30;;;9.10;99.90;;;;;;5039776;28;20866;-38
2023/11/18 08:35:24;;;;;;;10.63;7.60;;;9.10;99.90;;;;;;5040132;28;20940;-39
2023/11/18 08:37:52;;;;;;;10.70;7.10;;;9.10;99.90;;;;;;5003081;28;20477;-38
2023/11/18 08:40:25;;;;;;;9.10;7.07;;;9.10;99.90;;;;;;5019556;28;20164;-37
2023/11/18 08:42:53;;;;;;;11.20;7.57;;;9.10;99.80;;;;;;5036954;28;20434;-39
2023/11/18 08:45:28;;;;;;;10.77;7.63;;;9.10;99.80;;;;;;5037590;28;20491;-38
2023/11/18 08:48:07;;;;;;;9.90;7.43;;;9.20;99.70;;;;;;5018805;28;20422;-33
2023/11/18 08:50:36;;;;;;;9.63;6.57;;;9.20;99.50;;;;;;5037581;28;21235;-32
2023/11/18 08:53:05;;;;;;;10.60;7.17;;;9.20;99.50;;;;;;5025876;28;20446;-34
2023/11/18 08:55:39;;;;;;;9.20;7.53;;;9.20;99.60;;;;;;5001137;28;20754;-36
2023/11/18 08:58:21;;;;;;;9.13;7.03;;;9.20;99.70;;;;;;5000600;28;20528;-38
2023/11/18 09:00:54;;;;;;;8.70;6.63;;;9.10;99.80;;;;;;5000253;28;20246;-34
2023/11/18 09:03:27;;;;;;;8.73;7.27;;;9.20;99.80;;;;;;5026376;28;20469;-37
2023/11/18 09:06:25;;;;;;;7.20;6.00;;;9.20;99.70;;;;;;5002435;28;20419;-37
2023/11/18 09:08:57;;;;;;;8.67;6.83;;;9.10;99.80;;;;;;5037611;28;20446;-34
2023/11/18 09:11:26;;;;;;;7.83;6.20;;;9.10;99.80;;;;;;5020317;28;20426;-34
2023/11/18 09:13:59;;;;;;;10.47;7.03;;;9.10;99.90;;;;;;5032530;28;20922;-32
2023/11/18 09:16:29;;;;;;;8.77;7.03;;;9.10;99.90;;;;;;5020253;28;20422;-37
2023/11/18 09:18:59;;;;;;;9.80;6.60;;;9.10;99.90;;;;;;5038004;28;20470;-37
2023/11/18 09:21:29;;;;;;;7.15;5.85;;;9.10;99.90;;;;;;5003844;28;20440;-38
2023/11/18 09:23:56;;;;;;;7.73;6.40;;;9.10;99.90;;;;;;4990443;28;20622;-37
2023/11/18 09:26:29;;;;;;;9.53;5.87;;;9.20;99.90;;;;;;5021534;28;20501;-37
2023/11/18 09:29:01;;;;;;;7.20;5.70;;;9.10;99.90;;;;;;5021200;28;21038;-36
2023/11/18 09:31:27;;;;;;;11.82;6.07;;;9.20;99.90;;;;;;5022010;28;20550;-40
2023/11/18 09:33:57;;;;;;;8.88;5.50;;;9.20;99.90;;;;;;5020037;28;20518;-34
2023/11/18 09:36:23;;;;;;;8.90;5.90;;;9.20;99.90;;;;;;5036988;28;20191;-37
2023/11/18 09:38:49;;;;;;;9.07;7.10;;;9.30;99.90;;;;;;5039237;28;20466;-39
2023/11/18 09:41:17;;;;;;;8.50;5.97;;;9.20;99.80;;;;;;5005502;28;20473;-40
2023/11/18 09:43:45;;;;;;;8.45;6.13;;;9.20;99.90;;;;;;4988676;28;20465;-34
2023/11/18 09:46:24;;;;;;;6.27;5.27;;;9.20;99.90;;;;;;5005501;28;20281;-40
2023/11/18 09:48:52;;;;;;;6.35;5.35;;;9.30;99.90;;;;;;5013972;28;20437;-36
2023/11/18 09:51:32;;;;;;;9.73;6.15;;;9.30;99.90;;;;;;5026634;28;20418;-36
2023/11/18 09:54:06;;;;;;;7.03;5.67;;;9.30;99.80;;;;;;5019044;28;20274;-35
2023/11/18 09:56:38;;;;;;;7.22;5.72;;;9.30;99.70;;;;;;5025202;28;20614;-40
2023/11/18 09:59:23;;;;;;;6.35;5.30;;;9.30;99.70;;;;;;5042134;28;20204;-40
2023/11/18 10:01:57;;;;;;;5.50;4.80;;;9.40;99.70;;;;;;5042578;28;20211;-39
2023/11/18 10:04:31;;;;;;;5.57;4.90;;;9.40;99.70;;;;;;5033043;28;20509;-38
2023/11/18 10:06:58;;;;;;;7.90;5.80;;;9.30;99.70;;;;;;4998715;28;20554;-38
2023/11/18 10:09:37;;;;;;;6.47;4.78;;;9.30;99.80;;;;;;5023159;28;20429;-38
2023/11/18 10:12:06;;;;;;;5.90;5.07;;;9.30;99.90;;;;;;5041100;28;20581;-39
2023/11/18 10:14:36;;;;;;;5.60;4.67;;;9.30;99.80;;;;;;5017000;28;20431;-37
2023/11/18 10:17:09;;;;;;;7.20;5.47;;;9.30;99.90;;;;;;5036136;28;20427;-36
2023/11/18 10:19:51;;;;;;;7.10;5.17;;;9.30;99.90;;;;;;5021872;28;20942;-39
2023/11/18 10:22:32;;;;;;;5.65;4.70;;;9.30;99.90;;;;;;5004092;28;20467;-38
2023/11/18 10:25:01;;;;;;;6.50;4.93;;;9.30;99.90;;;;;;5035472;28;20238;-36
2023/11/18 10:27:28;;;;;;;7.80;4.93;;;9.30;99.90;;;;;;5032368;28;20488;-38
2023/11/18 10:30:13;;;;;;;5.67;4.70;;;9.30;99.90;;;;;;5024641;28;20414;-38
2023/11/18 10:32:41;;;;;;;7.47;4.53;;;9.30;99.90;;;;;;5035157;28;20808;-40
2023/11/18 10:35:10;;;;;;;6.50;4.73;;;9.30;99.90;;;;;;5041714;28;20280;-35
2023/11/18 10:37:43;;;;;;;7.07;5.10;;;9.30;99.90;;;;;;5023537;28;20447;-33
2023/11/18 10:40:13;;;;;;;5.30;4.70;;;9.40;99.90;;;;;;5008161;28;20431;-37
2023/11/18 10:42:44;;;;;;;6.00;4.70;;;9.40;99.90;;;;;;5022222;28;20443;-34
2023/11/18 10:45:24;;;;;;;5.57;4.43;;;9.30;99.90;;;;;;5026045;28;20424;-35
2023/11/18 10:47:55;;;;;;;7.37;5.20;;;9.30;99.90;;;;;;5031635;28;20517;-38
2023/11/18 10:50:25;;;;;;;5.17;4.20;;;9.40;99.90;;;;;;5008605;28;20430;-40
2023/11/18 10:52:52;;;;;;;5.80;4.40;;;9.40;99.90;;;;;;5039339;28;20964;-38
2023/11/18 10:55:19;;;;;;;7.47;4.57;;;9.40;99.90;;;;;;5010159;28;20980;-38
2023/11/18 10:57:46;;;;;;;5.10;4.60;;;9.40;99.90;;;;;;5031427;28;20821;-39
2023/11/18 11:00:18;;;;;;;5.63;4.50;;;9.40;99.90;;;;;;5042025;28;20719;-36
2023/11/18 11:02:46;;;;;;;8.10;4.73;;;9.40;99.90;;;;;;5040476;28;20553;-40
2023/11/18 11:05:32;;;;;;;7.90;4.73;;;9.50;99.90;;;;;;5041129;28;20417;-33
2023/11/18 11:07:59;;;;;;;6.40;4.30;;;9.40;99.90;;;;;;5040068;28;20414;-39
2023/11/18 11:10:28;;;;;;;5.57;4.68;;;9.40;99.90;;;;;;5006857;28;20501;-39
2023/11/18 11:13:01;;;;;;;6.30;4.60;;;9.40;99.90;;;;;;5023410;28;20207;-40
2023/11/18 11:15:32;;;;;;;5.10;4.40;;;9.40;99.90;;;;;;5038265;28;20427;-36
2023/11/18 11:18:15;;;;;;;5.90;4.50;;;9.40;99.90;;;;;;5039706;28;20473;-39
2023/11/18 11:20:53;;;;;;;6.65;5.20;;;9.40;99.90;;;;;;5030081;28;20423;-41
2023/11/18 11:23:43;;;;;;;6.13;4.50;;;9.40;99.90;;;;;;5023121;28;20267;-35
2023/11/18 11:26:38;;;;;;;5.37;4.83;;;9.50;99.90;;;;;;4998269;28;20268;-40
2023/11/18 11:29:47;;;;;;;5.53;4.82;;;9.50;99.90;;;;;;5022944;28;20424;-34
2023/11/18 11:32:30;;;;;;;5.27;4.63;;;9.60;99.90;;;;;;4955078;28;20291;-39
2023/11/18 11:35:07;;;;;;;6.97;4.50;;;9.50;99.90;;;;;;5012933;28;20474;-40
2023/11/18 11:37:34;;;;;;;6.87;4.73;;;9.50;99.90;;;;;;5040670;28;20748;-35
2023/11/18 11:40:09;;;;;;;5.33;4.37;;;9.60;99.90;;;;;;5041049;28;20980;-34
2023/11/18 11:42:43;;;;;;;6.33;5.10;;;9.50;99.90;;;;;;5040625;28;20438;-36
2023/11/18 11:45:19;;;;;;;4.47;4.00;;;9.50;99.90;;;;;;5040670;28;20418;-37
2023/11/18 11:47:50;;;;;;;5.57;4.40;;;9.50;99.90;;;;;;5040691;28;20514;-38
2023/11/18 11:50:31;;;;;;;4.83;4.03;;;9.40;99.90;;;;;;5040607;28;20558;-35
2023/11/18 11:53:13;;;;;;;8.17;4.33;;;9.40;99.90;;;;;;5022211;28;20443;-36
2023/11/18 11:55:52;;;;;;;7.53;4.23;;;9.40;99.90;;;;;;5031516;28;21591;-34
2023/11/18 11:58:27;;;;;;;6.30;4.90;;;9.40;99.90;;;;;;5036447;28;20535;-40
2023/11/18 12:00:54;;;;;;;7.10;4.20;;;9.40;99.90;;;;;;5027683;28;20711;-36
2023/11/18 12:03:23;;;;;;;5.87;4.30;;;9.50;99.90;;;;;;5021720;28;20435;-38
2023/11/18 12:06:07;;;;;;;5.90;4.50;;;9.50;99.90;;;;;;5002583;28;20459;-36
2023/11/18 12:08:39;;;;;;;4.87;4.00;;;9.50;99.90;;;;;;5039876;28;20784;-37
2023/11/18 12:11:09;;;;;;;7.70;5.32;;;9.50;99.90;;;;;;5022424;28;20881;-37
2023/11/18 12:13:44;;;;;;;6.33;4.67;;;9.50;99.90;;;;;;5159990;22;20497;-68
2023/11/18 12:16:14;;;;;;;5.15;4.22;;;9.50;99.90;;;;;;4997061;28;20917;-68
2023/11/18 12:18:43;;;;;;;4.63;4.13;;;9.50;99.90;;;;;;5015933;28;20209;-68
2023/11/18 12:21:30;;;;;;;5.67;4.00;;;9.60;99.90;;;;;;5012374;28;21099;-68
2023/11/18 12:24:22;;;;;;;6.50;5.07;;;9.60;99.90;;;;;;4978304;28;20452;-68
2023/11/18 12:26:50;;;;;;;6.00;3.97;;;9.50;99.90;;;;;;4990743;28;20435;-68
2023/11/18 12:29:34;;;;;;;6.27;4.50;;;9.50;99.90;;;;;;5018865;28;20431;-68
2023/11/18 12:32:05;;;;;;;6.13;4.67;;;9.50;99.90;;;;;;5000090;28;20927;-68
2023/11/18 12:34:53;;;;;;;5.17;4.03;;;9.60;99.90;;;;;;5018370;28;20550;-68
2023/11/18 12:37:19;;;;;;;6.33;4.20;;;9.50;99.90;;;;;;4997361;28;20443;-68
2023/11/18 12:40:20;;;;;;;6.70;4.03;;;9.50;99.90;;;;;;5007545;28;20495;-68
2023/11/18 12:43:05;;;;;;;8.30;4.10;;;9.50;99.90;;;;;;4980090;28;20770;-68
2023/11/18 12:46:06;;;;;;;5.50;4.50;;;9.50;99.90;;;;;;5006311;28;20459;-68
2023/11/18 12:48:36;;;;;;;4.90;3.90;;;9.50;99.90;;;;;;4977361;28;21226;-68
2023/11/18 12:51:10;;;;;;;6.03;3.43;;;9.50;99.90;;;;;;4999725;28;20439;-68
2023/11/18 12:53:40;;;;;;;6.97;4.30;;;9.50;99.90;;;;;;4999905;28;20550;-68
2023/11/18 12:56:08;;;;;;;4.60;3.80;;;9.50;99.90;;;;;;5015753;28;20459;-68
2023/11/18 12:58:37;;;;;;;5.10;3.73;;;9.50;99.90;;;;;;4983235;28;20466;-68
2023/11/18 13:01:04;;;;;;;5.22;4.25;;;9.50;99.90;;;;;;5017244;28;20520;-68
2023/11/18 13:03:30;;;;;;;4.43;3.75;;;9.50;99.90;;;;;;5001785;28;20173;-68
2023/11/18 13:06:00;;;;;;;5.20;3.83;;;9.60;99.90;;;;;;5017477;28;20209;-67
2023/11/18 13:08:26;;;;;;;4.47;4.00;;;9.60;99.90;;;;;;4998863;28;21040;-68
2023/11/18 13:10:54;;;;;;;5.67;4.40;;;9.60;99.90;;;;;;4983946;28;20634;-68